Time,TemperatureF,DewpointF,PressureIn,WindDirection,WindDirectionDegrees,WindSpeedMPH,WindSpeedGustMPH,Humidity,HourlyPrecipIn,Conditions,Clouds,dailyrainin,SoftwareType,DateUTC
2013-07-25 00:14:00,52.0,50.0,29.91,ENE,62,0.0,3.0,93,0.00,,,0.00,weatherlink.com 1.10,2013-07-25 06:14:00,
2013-07-25 00:29:00,52.9,50.0,29.90,ENE,58,3.0,3.0,91,0.00,,,0.00,weatherlink.com 1.10,2013-07-25 06:29:00,
2013-07-25 00:44:00,52.8,50.0,29.90,East,83,0.0,1.0,91,0.00,,,0.00,weatherlink.com 1.10,2013-07-25 06:44:00,
2013-07-25 00:59:00,52.7,50.0,29.89,East,83,0.0,0.0,91,0.00,,,0.00,weatherlink.com 1.10,2013-07-25 06:59:00,
2013-07-25 01:14:00,52.6,50.0,29.88,East,83,0.0,0.0,92,0.00,,,0.00,weatherlink.com 1.10,2013-07-25 07:14:00,
2013-07-25 01:29:00,52.2,50.0,29.88,East,84,0.0,0.0,92,0.00,,,0.00,weatherlink.com 1.10,2013-07-25 07:29:00,
2013-07-25 01:44:00,51.8,50.0,29.85,East,83,0.0,1.0,93,0.00,,,0.00,weatherlink.com 1.10,2013-07-25 07:44:00,
2013-07-25 01:59:00,51.4,50.0,29.85,East,83,0.0,0.0,93,0.00,,,0.00,weatherlink.com 1.10,2013-07-25 07:59:00,
2013-07-25 02:14:00,50.7,49.0,29.85,East,83,0.0,0.0,94,0.00,,,0.00,weatherlink.com 1.10,2013-07-25 08:14:00,
2013-07-25 02:29:00,50.0,48.0,29.84,East,83,0.0,0.0,94,0.00,,,0.00,weatherlink.com 1.10,2013-07-25 08:29:00,
2013-07-25 02:44:00,50.0,49.0,29.84,WNW,300,0.0,1.0,95,0.00,,,0.00,weatherlink.com 1.10,2013-07-25 08:44:00,
2013-07-25 02:59:00,50.1,49.0,29.82,WNW,299,0.0,0.0,96,0.00,,,0.00,weatherlink.com 1.10,2013-07-25 08:59:00,
2013-07-25 03:14:00,50.3,49.0,29.82,WNW,297,0.0,0.0,95,0.00,,,0.00,weatherlink.com 1.10,2013-07-25 09:14:00,
2013-07-25 03:29:00,50.1,49.0,29.81,WNW,299,0.0,0.0,95,0.00,,,0.00,weatherlink.com 1.10,2013-07-25 09:29:00,
2013-07-25 03:44:00,49.9,49.0,29.81,WNW,300,0.0,0.0,95,0.00,,,0.00,weatherlink.com 1.10,2013-07-25 09:44:00,
2013-07-25 03:59:00,50.0,49.0,29.82,ESE,113,0.0,4.0,95,0.00,,,0.00,weatherlink.com 1.10,2013-07-25 09:59:00,
2013-07-25 04:14:00,52.6,49.0,29.84,WSW,256,2.0,6.0,88,0.00,,,0.00,weatherlink.com 1.10,2013-07-25 10:14:00,
2013-07-25 04:30:00,54.4,48.0,29.84,SE,134,0.0,4.0,80,0.00,,,0.00,weatherlink.com 1.10,2013-07-25 10:30:00,
2013-07-25 04:45:00,53.0,49.0,29.82,ESE,116,0.0,1.0,87,0.02,,,0.02,weatherlink.com 1.10,2013-07-25 10:45:00,
2013-07-25 05:00:00,51.3,49.0,29.81,NW,323,0.0,1.0,91,0.03,,,0.03,weatherlink.com 1.10,2013-07-25 11:00:00,
2013-07-25 05:15:00,50.9,48.0,29.80,ESE,123,0.0,2.0,91,0.03,,,0.03,weatherlink.com 1.10,2013-07-25 11:15:00,
2013-07-25 05:30:00,50.4,48.0,29.81,NE,50,0.0,1.0,92,0.03,,,0.03,weatherlink.com 1.10,2013-07-25 11:30:00,
2013-07-25 05:45:00,50.0,48.0,29.81,NE,50,0.0,0.0,94,0.01,,,0.03,weatherlink.com 1.10,2013-07-25 11:45:00,
2013-07-25 06:00:00,49.9,49.0,29.82,NNW,333,0.0,2.0,95,0.00,,,0.03,weatherlink.com 1.10,2013-07-25 12:00:00,
2013-07-25 06:15:00,50.4,49.0,29.83,SW,214,0.0,5.0,94,0.00,,,0.03,weatherlink.com 1.10,2013-07-25 12:15:00,
2013-07-25 06:30:00,52.3,49.0,29.82,NW,316,0.0,5.0,88,0.00,,,0.03,weatherlink.com 1.10,2013-07-25 12:30:00,
2013-07-25 06:45:00,52.0,49.0,29.82,NE,54,0.0,1.0,89,0.00,,,0.03,weatherlink.com 1.10,2013-07-25 12:45:00,
2013-07-25 07:00:00,52.0,49.0,29.82,SE,141,0.0,0.0,90,0.00,,,0.03,weatherlink.com 1.10,2013-07-25 13:00:00,
2013-07-25 07:15:00,51.7,49.0,29.82,NNW,335,0.0,2.0,91,0.00,,,0.03,weatherlink.com 1.10,2013-07-25 13:15:00,
2013-07-25 07:30:00,52.2,50.0,29.83,SW,217,0.0,1.0,91,0.00,,,0.03,weatherlink.com 1.10,2013-07-25 13:30:00,
2013-07-25 07:45:00,52.8,50.0,29.84,WNW,287,0.0,3.0,91,0.00,,,0.03,weatherlink.com 1.10,2013-07-25 13:45:00,
2013-07-25 08:00:00,53.4,51.0,29.85,WNW,285,0.0,2.0,90,0.00,,,0.03,weatherlink.com 1.10,2013-07-25 14:00:00,
2013-07-25 08:15:00,54.1,50.0,29.84,NW,311,2.0,2.0,87,0.00,,,0.03,weatherlink.com 1.10,2013-07-25 14:15:00,
2013-07-25 08:30:00,56.1,50.0,29.83,West,280,1.0,4.0,80,0.00,,,0.03,weatherlink.com 1.10,2013-07-25 14:30:00,
2013-07-25 08:45:00,56.3,51.0,29.84,WNW,302,0.0,4.0,83,0.00,,,0.03,weatherlink.com 1.10,2013-07-25 14:45:00,
2013-07-25 09:00:00,56.6,51.0,29.85,SSE,160,2.0,4.0,82,0.00,,,0.03,weatherlink.com 1.10,2013-07-25 15:00:00,
2013-07-25 09:15:00,57.2,51.0,29.85,NE,49,0.0,4.0,80,0.00,,,0.03,weatherlink.com 1.10,2013-07-25 15:15:00,
2013-07-25 09:30:00,58.5,52.0,29.86,WNW,287,0.0,3.0,78,0.00,,,0.03,weatherlink.com 1.10,2013-07-25 15:30:00,
2013-07-25 09:45:00,60.6,54.0,29.86,WNW,291,0.0,2.0,78,0.00,,,0.03,weatherlink.com 1.10,2013-07-25 15:45:00,
2013-07-25 10:00:00,61.7,53.0,29.86,WSW,246,0.0,4.0,73,0.00,,,0.03,weatherlink.com 1.10,2013-07-25 16:00:00,
2013-07-25 10:15:00,60.3,52.0,29.87,East,84,0.0,3.0,75,0.00,,,0.03,weatherlink.com 1.10,2013-07-25 16:15:00,
2013-07-25 10:30:00,60.4,51.0,29.88,SSW,197,0.0,2.0,71,0.00,,,0.03,weatherlink.com 1.10,2013-07-25 16:30:00,
2013-07-25 10:45:00,60.6,52.0,29.88,SSW,197,0.0,0.0,74,0.00,,,0.03,weatherlink.com 1.10,2013-07-25 16:45:00,
2013-07-25 11:00:00,60.4,52.0,29.89,SSW,197,0.0,1.0,75,0.00,,,0.03,weatherlink.com 1.10,2013-07-25 17:00:00,
2013-07-25 11:15:00,59.9,53.0,29.89,SSW,197,0.0,0.0,77,0.00,,,0.03,weatherlink.com 1.10,2013-07-25 17:15:00,
2013-07-25 11:30:00,60.3,51.0,29.90,East,94,0.0,4.0,72,0.00,,,0.03,weatherlink.com 1.10,2013-07-25 17:30:00,
2013-07-25 11:45:00,61.4,52.0,29.91,ENE,71,5.0,5.0,71,0.00,,,0.03,weatherlink.com 1.10,2013-07-25 17:45:00,
2013-07-25 12:00:00,61.6,51.0,29.91,ESE,108,0.0,4.0,68,0.00,,,0.03,weatherlink.com 1.10,2013-07-25 18:00:00,
2013-07-25 12:15:00,60.3,52.0,29.94,SE,142,2.0,12.0,74,0.02,,,0.05,weatherlink.com 1.10,2013-07-25 18:15:00,
2013-07-25 12:30:00,56.7,51.0,29.96,East,82,0.0,4.0,82,0.09,,,0.12,weatherlink.com 1.10,2013-07-25 18:30:00,
2013-07-25 12:45:00,55.6,53.0,29.95,East,82,0.0,0.0,91,0.17,,,0.20,weatherlink.com 1.10,2013-07-25 18:45:00,
2013-07-25 13:00:00,56.3,54.0,29.95,East,80,0.0,0.0,91,0.17,,,0.20,weatherlink.com 1.10,2013-07-25 19:00:00,
2013-07-25 13:15:00,57.2,55.0,29.95,NW,314,0.0,1.0,91,0.14,,,0.20,weatherlink.com 1.10,2013-07-25 19:15:00,
2013-07-25 13:30:00,57.3,55.0,29.95,NW,314,0.0,0.0,91,0.07,,,0.20,weatherlink.com 1.10,2013-07-25 19:30:00,
2013-07-25 13:45:00,56.8,55.0,29.96,NW,313,0.0,0.0,92,0.00,,,0.20,weatherlink.com 1.10,2013-07-25 19:45:00,
2013-07-25 14:00:00,56.4,54.0,29.97,NW,308,0.0,1.0,92,0.01,,,0.21,weatherlink.com 1.10,2013-07-25 20:00:00,
2013-07-25 14:15:00,55.3,53.0,29.99,NNE,32,1.0,7.0,91,0.06,,,0.26,weatherlink.com 1.10,2013-07-25 20:15:00,
2013-07-25 14:31:00,52.8,49.0,29.99,East,93,0.0,2.0,88,0.12,,,0.32,weatherlink.com 1.10,2013-07-25 20:31:00,
2013-07-25 14:45:00,52.1,50.0,30.01,ESE,102,0.0,1.0,92,0.14,,,0.34,weatherlink.com 1.10,2013-07-25 20:45:00,
2013-07-25 15:00:00,50.9,48.0,30.00,South,187,0.0,2.0,91,0.15,,,0.36,weatherlink.com 1.10,2013-07-25 21:00:00,
2013-07-25 15:15:00,51.0,49.0,30.00,WSW,250,0.0,0.0,94,0.11,,,0.37,weatherlink.com 1.10,2013-07-25 21:15:00,
2013-07-25 15:31:00,52.6,50.0,30.01,WNW,297,0.0,1.0,92,0.05,,,0.37,weatherlink.com 1.10,2013-07-25 21:31:00,
2013-07-25 15:46:00,54.8,52.0,30.00,West,276,0.0,1.0,90,0.03,,,0.37,weatherlink.com 1.10,2013-07-25 21:46:00,
2013-07-25 16:01:00,56.2,52.0,30.01,WNW,297,0.0,0.0,85,0.01,,,0.37,weatherlink.com 1.10,2013-07-25 22:01:00,
2013-07-25 16:16:00,56.2,52.0,30.01,NW,307,0.0,0.0,86,0.00,,,0.37,weatherlink.com 1.10,2013-07-25 22:16:00,
2013-07-25 16:31:00,56.8,51.0,30.01,NW,307,0.0,0.0,81,0.00,,,0.37,weatherlink.com 1.10,2013-07-25 22:31:00,
2013-07-25 16:46:00,58.7,51.0,30.00,ENE,64,0.0,1.0,75,0.00,,,0.37,weatherlink.com 1.10,2013-07-25 22:46:00,
2013-07-25 17:01:00,59.2,52.0,29.99,East,86,1.0,1.0,76,0.00,,,0.37,weatherlink.com 1.10,2013-07-25 23:01:00,
2013-07-25 17:16:00,58.6,51.0,30.00,ESE,113,3.0,4.0,77,0.00,,,0.37,weatherlink.com 1.10,2013-07-25 23:16:00,
2013-07-25 17:31:00,59.3,54.0,30.00,NE,35,0.0,0.0,82,0.00,,,0.37,weatherlink.com 1.10,2013-07-25 23:31:00,
2013-07-25 17:46:00,58.7,54.0,30.00,SSW,204,0.0,0.0,83,0.00,,,0.37,weatherlink.com 1.10,2013-07-25 23:46:00,
2013-07-25 18:01:00,57.3,53.0,29.98,WSW,247,0.0,0.0,86,0.00,,,0.37,weatherlink.com 1.10,2013-07-26 00:01:00,
2013-07-25 18:16:00,56.7,54.0,29.99,WSW,248,0.0,0.0,90,0.00,,,0.37,weatherlink.com 1.10,2013-07-26 00:16:00,
2013-07-25 18:31:00,56.2,54.0,29.98,WSW,248,0.0,0.0,91,0.00,,,0.37,weatherlink.com 1.10,2013-07-26 00:31:00,
2013-07-25 18:46:00,55.8,53.0,29.98,WSW,248,0.0,0.0,91,0.00,,,0.37,weatherlink.com 1.10,2013-07-26 00:46:00,
2013-07-25 19:01:00,55.4,52.0,29.97,West,262,0.0,0.0,89,0.00,,,0.37,weatherlink.com 1.10,2013-07-26 01:01:00,
2013-07-25 19:16:00,55.4,52.0,29.97,West,262,0.0,0.0,89,0.00,,,0.37,weatherlink.com 1.10,2013-07-26 01:16:00,
2013-07-25 19:31:00,55.2,52.0,29.98,West,262,0.0,0.0,90,0.00,,,0.37,weatherlink.com 1.10,2013-07-26 01:31:00,
2013-07-25 19:46:00,54.6,52.0,29.97,West,262,0.0,0.0,92,0.00,,,0.37,weatherlink.com 1.10,2013-07-26 01:46:00,
2013-07-25 20:01:00,54.2,53.0,29.97,West,262,0.0,0.0,94,0.00,,,0.37,weatherlink.com 1.10,2013-07-26 02:01:00,
2013-07-25 20:16:00,53.8,52.0,29.97,West,262,0.0,0.0,94,0.00,,,0.37,weatherlink.com 1.10,2013-07-26 02:16:00,
2013-07-25 20:31:00,52.9,52.0,29.97,West,262,0.0,0.0,95,0.00,,,0.37,weatherlink.com 1.10,2013-07-26 02:31:00,
2013-07-25 20:46:00,52.1,51.0,29.98,NE,34,0.0,1.0,95,0.00,,,0.37,weatherlink.com 1.10,2013-07-26 02:46:00,
2013-07-25 21:01:00,51.3,50.0,30.00,SSW,211,0.0,0.0,95,0.00,,,0.37,weatherlink.com 1.10,2013-07-26 03:01:00,
2013-07-25 21:16:00,50.7,50.0,30.02,SSW,211,0.0,0.0,96,0.00,,,0.37,weatherlink.com 1.10,2013-07-26 03:16:00,
2013-07-25 21:46:00,49.1,48.0,30.03,SSW,211,0.0,0.0,96,0.00,,,0.37,weatherlink.com 1.10,2013-07-26 03:46:00,
2013-07-25 22:01:00,48.2,47.0,30.04,SSW,212,0.0,0.0,96,0.00,,,0.37,weatherlink.com 1.10,2013-07-26 04:01:00,
2013-07-25 22:16:00,47.5,47.0,30.04,SW,229,0.0,0.0,96,0.00,,,0.37,weatherlink.com 1.10,2013-07-26 04:16:00,
2013-07-25 22:46:00,47.9,47.0,30.05,SW,228,0.0,0.0,97,0.00,,,0.37,weatherlink.com 1.10,2013-07-26 04:46:00,
2013-07-25 23:01:00,47.9,47.0,30.05,SW,228,0.0,0.0,97,0.00,,,0.37,weatherlink.com 1.10,2013-07-26 05:01:00,
2013-07-25 23:16:00,47.9,47.0,30.06,SW,228,0.0,0.0,97,0.00,,,0.37,weatherlink.com 1.10,2013-07-26 05:16:00,
2013-07-25 23:31:00,47.8,47.0,30.06,SW,228,0.0,0.0,97,0.00,,,0.37,weatherlink.com 1.10,2013-07-26 05:31:00,
2013-07-25 23:46:00,47.6,47.0,30.06,SW,228,0.0,0.0,97,0.00,,,0.37,weatherlink.com 1.10,2013-07-26 05:46:00,